Tsurutama Maru No.2 — JD3586 — position and weather

sailwx.info

Track history (hours):
 
Tides and Currents Weather Stations Pressure Air Temp Water Temp Dewpoint Dewpoint Depression Visibility Wind Speed Wind Dir Waves Ship Positions

Tsurutama Maru No.2

Last reported at 2018-Feb-21 19:15 UTC. Time now 2018-Feb-24 06:13 UTC.
Position N 41°18' E 140°22'.

Length 104 m; draft 6.5 m.

Type: Tanker. MMSI: 431004883.

Date/timePositionNaut miles runAvg speedWind from/ knotsBaromVisibWave heightAir tempDewpointWater temp
2018-Feb-21 19:15N 41°18' E 140°22'312.0
2018-Feb-21 19:00N 41°20' E 140°25'612.0
2018-Feb-21 18:28N 41°23' E 140°32'611.8
2018-Feb-21 17:57N 41°27' E 140°39'612.7
2018-Feb-21 17:30N 41°30' E 140°45'612.5
2018-Feb-21 17:00N 41°34' E 140°52'5 9.2
2018-Feb-21 16:30N 41°34' E 140°58'612.4
2018-Feb-21 16:00N 41°32' E 141°05'611.7
2018-Feb-21 15:30N 41°31' E 141°13'612.2
2018-Feb-21 15:00N 41°30' E 141°21'612.1
2018-Feb-21 14:30N 41°29' E 141°29'  
2018-Feb-15 10:11N 41°52' E 141°15'313.1
2018-Feb-15 09:58N 41°49' E 141°16'913.1
2018-Feb-15 09:18N 41°42' E 141°09'414.2
2018-Feb-15 09:00N 41°40' E 141°04'714.4
2018-Feb-15 08:30N 41°37' E 140°55'713.8
2018-Feb-15 08:00N 41°31' E 140°49'713.9
2018-Feb-15 07:30N 41°25' E 140°46'713.4
2018-Feb-15 07:00N 41°18' E 140°44'612.3
2018-Feb-15 06:30N 41°12' E 140°43'713.3
2018-Feb-15 05:58N 41°05' E 140°44'713.5
2018-Feb-15 05:28N 40°58' E 140°44'713.6
2018-Feb-15 04:57N 40°51' E 140°45'2 0.3
2018-Feb-14 23:37N 40°50' E 140°44'11 1.3
2018-Feb-14 15:31N 41°01' E 140°44'014.7
2018-Feb-14 15:30N 41°01' E 140°44'914.3
2018-Feb-14 14:52N 41°10' E 140°43'514.1
2018-Feb-14 14:29N 41°16' E 140°44'613.4
2018-Feb-14 14:00N 41°22' E 140°45'612.9
2018-Feb-14 13:30N 41°28' E 140°46'612.1
2018-Feb-14 13:01N 41°34' E 140°49'611.5
2018-Feb-14 12:30N 41°37' E 140°56'612.2
2018-Feb-14 12:00N 41°41' E 141°02'713.4
2018-Feb-14 11:30N 41°44' E 141°10'  
Track history (hours):
 
Tides and Currents Weather Stations Pressure Air Temp Water Temp Dewpoint Dewpoint Depression Visibility Wind Speed Wind Dir Waves Ship Positions

Tsurutama Maru No.2

Last reported at 2018-Feb-21 19:15 UTC. Time now 2018-Feb-24 06:13 UTC.
Position N 41°18' E 140°22'.

Length 104 m; draft 6.5 m.

Type: Tanker. MMSI: 431004883.

Date/timePositionNaut miles runAvg speedWind from/ knotsBaromVisibWave heightAir tempDewpointWater temp
2018-Feb-21 19:15N 41°18' E 140°22'312.0
2018-Feb-21 19:00N 41°20' E 140°25'612.0
2018-Feb-21 18:28N 41°23' E 140°32'611.8
2018-Feb-21 17:57N 41°27' E 140°39'612.7
2018-Feb-21 17:30N 41°30' E 140°45'612.5
2018-Feb-21 17:00N 41°34' E 140°52'5 9.2
2018-Feb-21 16:30N 41°34' E 140°58'612.4
2018-Feb-21 16:00N 41°32' E 141°05'611.7
2018-Feb-21 15:30N 41°31' E 141°13'612.2
2018-Feb-21 15:00N 41°30' E 141°21'612.1
2018-Feb-21 14:30N 41°29' E 141°29'  
2018-Feb-15 10:11N 41°52' E 141°15'313.1
2018-Feb-15 09:58N 41°49' E 141°16'913.1
2018-Feb-15 09:18N 41°42' E 141°09'414.2
2018-Feb-15 09:00N 41°40' E 141°04'714.4
2018-Feb-15 08:30N 41°37' E 140°55'713.8
2018-Feb-15 08:00N 41°31' E 140°49'713.9
2018-Feb-15 07:30N 41°25' E 140°46'713.4
2018-Feb-15 07:00N 41°18' E 140°44'612.3
2018-Feb-15 06:30N 41°12' E 140°43'713.3
2018-Feb-15 05:58N 41°05' E 140°44'713.5
2018-Feb-15 05:28N 40°58' E 140°44'713.6
2018-Feb-15 04:57N 40°51' E 140°45'2 0.3
2018-Feb-14 23:37N 40°50' E 140°44'11 1.3
2018-Feb-14 15:31N 41°01' E 140°44'014.7
2018-Feb-14 15:30N 41°01' E 140°44'914.3
2018-Feb-14 14:52N 41°10' E 140°43'514.1
2018-Feb-14 14:29N 41°16' E 140°44'613.4
2018-Feb-14 14:00N 41°22' E 140°45'612.9
2018-Feb-14 13:30N 41°28' E 140°46'612.1
2018-Feb-14 13:01N 41°34' E 140°49'611.5
2018-Feb-14 12:30N 41°37' E 140°56'612.2
2018-Feb-14 12:00N 41°41' E 141°02'713.4
2018-Feb-14 11:30N 41°44' E 141°10'  

Dump ship's entire track history